createdAt,value
2017-09-07T00:01:25.877Z,100989.48
2017-09-07T00:04:00.520Z,100997.64
2017-09-07T00:06:35.208Z,100992.98
2017-09-07T00:09:09.913Z,100993.29
2017-09-07T00:11:44.436Z,100990.36
2017-09-07T00:14:20.195Z,100996.09
2017-09-07T00:16:54.850Z,100995.88
2017-09-07T00:19:29.536Z,100993.92
2017-09-07T00:22:04.276Z,100993.19
2017-09-07T00:24:39.937Z,100983.09
2017-09-07T00:27:14.585Z,100988.80
2017-09-07T00:29:49.337Z,100987.23
2017-09-07T00:32:23.843Z,100980.39
2017-09-07T00:34:58.553Z,100984.92
2017-09-07T00:37:33.425Z,100988.86
2017-09-07T00:40:08.126Z,100992.55
2017-09-07T00:42:42.752Z,100976.95
2017-09-07T00:45:17.065Z,100977.08
2017-09-07T00:47:51.981Z,100976.64
2017-09-07T00:50:26.366Z,100962.34
2017-09-07T00:53:00.915Z,100948.21
2017-09-07T00:55:35.989Z,100958.74
2017-09-07T00:58:10.505Z,100954.39
2017-09-07T01:00:45.345Z,100952.49
2017-09-07T01:03:20.297Z,100957.78
2017-09-07T01:05:55.024Z,100956.00
2017-09-07T01:08:29.412Z,100954.00
2017-09-07T01:11:04.128Z,100952.85
2017-09-07T01:13:38.893Z,100949.85
2017-09-07T01:16:13.793Z,100956.84
2017-09-07T01:18:48.402Z,100956.19
2017-09-07T01:21:22.776Z,100954.39
2017-09-07T01:23:57.312Z,100961.94
2017-09-07T01:26:31.989Z,100953.27
2017-09-07T01:29:06.698Z,100951.66
2017-09-07T01:31:42.837Z,100961.20
2017-09-07T01:34:17.092Z,100954.20
2017-09-07T01:36:52.044Z,100950.70
2017-09-07T01:39:26.977Z,100947.07
2017-09-07T01:42:01.705Z,100948.31
2017-09-07T01:44:36.425Z,100947.29
2017-09-07T01:47:11.360Z,100948.27
2017-09-07T01:49:46.215Z,100944.39
2017-09-07T01:52:21.061Z,100942.88
2017-09-07T01:54:55.373Z,100943.77
2017-09-07T01:57:30.237Z,100942.81
2017-09-07T02:00:04.998Z,100936.23
2017-09-07T02:02:39.829Z,100936.13
2017-09-07T02:05:14.432Z,100932.98
2017-09-07T02:07:48.989Z,100928.97
2017-09-07T02:10:24.014Z,100937.27
2017-09-07T02:12:58.734Z,100934.48
2017-09-07T02:15:33.516Z,100936.13
2017-09-07T02:18:08.328Z,100939.70
2017-09-07T02:20:42.880Z,100942.62
2017-09-07T02:23:17.620Z,100940.75
2017-09-07T02:25:51.977Z,100939.86
2017-09-07T02:28:26.449Z,100931.45
2017-09-07T02:31:01.285Z,100931.05
2017-09-07T02:33:36.108Z,100934.47
2017-09-07T02:36:10.842Z,100932.02
2017-09-07T02:38:46.224Z,100935.73
2017-09-07T02:41:21.050Z,100927.77
2017-09-07T02:43:56.436Z,100928.16
2017-09-07T02:46:31.136Z,100922.81
2017-09-07T02:49:05.809Z,100927.02
2017-09-07T02:51:40.560Z,100924.94
2017-09-07T02:54:15.540Z,100919.16
2017-09-07T02:56:50.049Z,100921.35
2017-09-07T02:59:24.556Z,100917.58
2017-09-07T03:01:59.281Z,100915.86
2017-09-07T03:04:33.982Z,100913.72
2017-09-07T03:07:08.760Z,100922.17
2017-09-07T03:09:43.516Z,100917.81
2017-09-07T03:12:18.269Z,100915.14
2017-09-07T03:14:53.027Z,100923.05
2017-09-07T03:17:27.876Z,100914.16
2017-09-07T03:20:02.661Z,100908.53
2017-09-07T03:22:37.436Z,100913.87
2017-09-07T03:25:12.228Z,100901.58
2017-09-07T03:27:46.695Z,100910.02
2017-09-07T03:30:22.726Z,100905.13
2017-09-07T03:32:57.168Z,100911.45
2017-09-07T03:35:31.822Z,100912.55
2017-09-07T03:38:06.385Z,100911.05
2017-09-07T03:40:41.160Z,100912.41
2017-09-07T03:43:15.806Z,100914.41
2017-09-07T03:45:51.765Z,100910.34
2017-09-07T03:48:26.469Z,100910.86
2017-09-07T03:51:01.216Z,100909.14
2017-09-07T03:53:35.996Z,100918.98
2017-09-07T03:56:10.721Z,100912.55
2017-09-07T03:58:45.585Z,100911.41
2017-09-07T04:01:20.280Z,100911.77
2017-09-07T04:03:54.941Z,100912.80
2017-09-07T04:06:29.605Z,100910.42
2017-09-07T04:09:04.445Z,100914.70
2017-09-07T04:11:39.744Z,100916.49
2017-09-07T04:14:14.508Z,100916.56
2017-09-07T04:16:49.429Z,100915.53
2017-09-07T04:19:24.200Z,100919.89
2017-09-07T04:21:59.096Z,100913.61
2017-09-07T04:24:33.941Z,100914.56
2017-09-07T04:27:08.461Z,100915.91
2017-09-07T04:29:43.332Z,100919.35
2017-09-07T04:32:18.064Z,100924.19
2017-09-07T04:34:52.725Z,100917.09
2017-09-07T04:37:27.472Z,100917.02
2017-09-07T04:40:02.296Z,100916.03
2017-09-07T04:42:36.937Z,100924.41
2017-09-07T04:45:11.470Z,100922.42
2017-09-07T04:47:46.165Z,100920.92
2017-09-07T04:50:20.885Z,100918.52
2017-09-07T04:52:55.540Z,100922.94
2017-09-07T04:55:29.965Z,100930.91
2017-09-07T04:58:04.705Z,100923.34
2017-09-07T05:00:39.530Z,100929.71
2017-09-07T05:03:14.330Z,100931.22
2017-09-07T05:05:48.888Z,100924.92
2017-09-07T05:08:23.613Z,100925.87
2017-09-07T05:10:58.597Z,100929.02
2017-09-07T05:13:33.240Z,100927.44
2017-09-07T05:16:08.048Z,100931.20
2017-09-07T05:18:42.908Z,100939.95
2017-09-07T05:21:17.657Z,100942.03
2017-09-07T05:23:52.488Z,100939.98
2017-09-07T05:26:27.206Z,100946.20
2017-09-07T05:29:01.869Z,100947.70
2017-09-07T05:31:36.674Z,100945.66
2017-09-07T05:34:11.520Z,100948.61
2017-09-07T05:36:46.186Z,100945.43
2017-09-07T05:39:21.048Z,100952.13
2017-09-07T05:41:55.396Z,100947.30
2017-09-07T05:44:30.136Z,100954.34
2017-09-07T05:47:04.869Z,100956.16
2017-09-07T05:49:39.653Z,100954.36
2017-09-07T05:52:14.572Z,100956.66
2017-09-07T05:54:49.436Z,100957.70
2017-09-07T05:57:24.032Z,100960.42
2017-09-07T05:59:58.881Z,100961.84
2017-09-07T06:02:33.484Z,100962.36
2017-09-07T06:05:08.218Z,100952.05
2017-09-07T06:07:42.592Z,100954.12
2017-09-07T06:10:17.625Z,100952.56
2017-09-07T06:12:52.366Z,100952.75
2017-09-07T06:15:26.977Z,100958.59
2017-09-07T06:18:01.761Z,100957.98
2017-09-07T06:20:36.221Z,100956.11
2017-09-07T06:23:10.839Z,100954.06
2017-09-07T06:25:45.492Z,100952.37
2017-09-07T06:28:20.223Z,100947.20
2017-09-07T06:30:55.907Z,100942.88
2017-09-07T06:33:30.557Z,100944.23
2017-09-07T06:36:05.280Z,100942.10
2017-09-07T06:38:40.235Z,100942.10
2017-09-07T06:41:15.004Z,100944.73
2017-09-07T06:43:49.888Z,100944.58
2017-09-07T06:46:24.525Z,100948.30
2017-09-07T06:48:59.424Z,100946.75
2017-09-07T06:51:34.068Z,100945.23
2017-09-07T06:54:08.804Z,100947.16
2017-09-07T06:56:43.329Z,100945.22
2017-09-07T06:59:18.161Z,100951.03
2017-09-07T07:01:52.908Z,100945.97
2017-09-07T07:04:27.592Z,100934.12
2017-09-07T07:07:02.241Z,100940.91
2017-09-07T07:09:38.177Z,100939.84
2017-09-07T07:12:13.002Z,100937.83
2017-09-07T07:14:48.804Z,100939.90
2017-09-07T07:17:23.432Z,100947.82
2017-09-07T07:19:58.012Z,100944.62
2017-09-07T07:22:32.756Z,100941.77
2017-09-07T07:25:07.438Z,100946.98
2017-09-07T07:27:42.345Z,100943.77
2017-09-07T07:30:17.057Z,100942.98
2017-09-07T07:32:51.705Z,100940.65
2017-09-07T07:35:27.722Z,100941.78
2017-09-07T07:38:02.445Z,100948.08
2017-09-07T07:40:37.188Z,100940.16
2017-09-07T07:43:11.985Z,100947.00
2017-09-07T07:45:46.612Z,100951.61
2017-09-07T07:48:21.367Z,100943.30
2017-09-07T07:50:56.276Z,100946.89
2017-09-07T07:53:30.916Z,100947.45
2017-09-07T07:56:05.685Z,100954.36
2017-09-07T07:58:40.481Z,100951.33
2017-09-07T08:01:15.222Z,100948.98
2017-09-07T08:03:49.667Z,100956.20
2017-09-07T08:06:24.517Z,100960.44
2017-09-07T08:08:59.195Z,100965.76
2017-09-07T08:11:34.009Z,100965.19
2017-09-07T08:14:08.674Z,100972.39
2017-09-07T08:16:43.385Z,100966.03
2017-09-07T08:19:17.930Z,100963.91
2017-09-07T08:21:52.817Z,100961.84
2017-09-07T08:24:27.477Z,100963.34
2017-09-07T08:27:02.005Z,100963.02
2017-09-07T08:29:36.745Z,100967.83
2017-09-07T08:32:11.557Z,100962.28
2017-09-07T08:34:46.301Z,100967.55
2017-09-07T08:37:20.917Z,100963.86
2017-09-07T08:39:55.601Z,100963.59
2017-09-07T08:42:30.201Z,100959.74
2017-09-07T08:45:05.001Z,100963.61
2017-09-07T08:47:39.797Z,100963.25
2017-09-07T08:50:14.501Z,100957.02
2017-09-07T08:52:49.282Z,100956.02
2017-09-07T08:55:24.336Z,100951.55
2017-09-07T08:57:59.065Z,100944.22
2017-09-07T09:00:33.775Z,100947.86
2017-09-07T09:03:08.698Z,100945.34
2017-09-07T09:05:43.457Z,100943.53
2017-09-07T09:08:18.100Z,100942.20
2017-09-07T09:10:52.783Z,100946.55
2017-09-07T09:13:27.733Z,100946.81
2017-09-07T09:16:02.641Z,100942.24
2017-09-07T09:18:37.369Z,100937.23
2017-09-07T09:21:12.100Z,100941.60
2017-09-07T09:23:46.453Z,100941.39
2017-09-07T09:26:22.177Z,100927.56
2017-09-07T09:28:56.937Z,100930.22
2017-09-07T09:31:31.901Z,100936.05
2017-09-07T09:34:06.418Z,100924.50
2017-09-07T09:36:41.202Z,100914.43
2017-09-07T09:39:15.892Z,100914.91
2017-09-07T09:41:50.625Z,100915.56
2017-09-07T09:44:25.482Z,100914.58
2017-09-07T09:47:01.137Z,100907.33
2017-09-07T09:49:35.856Z,100911.67
2017-09-07T09:52:10.657Z,100910.45
2017-09-07T09:54:45.440Z,100905.69
2017-09-07T09:57:21.184Z,100904.30
2017-09-07T09:59:55.801Z,100901.91
2017-09-07T10:02:30.440Z,100898.19
2017-09-07T10:05:05.456Z,100903.12
2017-09-07T10:07:40.202Z,100902.02
2017-09-07T10:10:14.720Z,100906.34
2017-09-07T10:12:49.540Z,100900.90
2017-09-07T10:15:24.268Z,100901.31
2017-09-07T10:17:58.821Z,100898.20
2017-09-07T10:20:33.432Z,100897.02
2017-09-07T10:23:08.172Z,100884.09
2017-09-07T10:25:43.000Z,100882.72
2017-09-07T10:28:17.636Z,100879.62
2017-09-07T10:30:52.380Z,100876.50
2017-09-07T10:33:27.077Z,100871.77
2017-09-07T10:36:01.601Z,100867.50
2017-09-07T10:38:36.297Z,100859.24
2017-09-07T10:41:10.993Z,100867.31
2017-09-07T10:43:45.686Z,100862.17
2017-09-07T10:46:21.326Z,100871.81
2017-09-07T10:48:55.940Z,100873.12
2017-09-07T10:51:30.649Z,100871.16
2017-09-07T10:54:04.845Z,100880.16
2017-09-07T10:56:39.869Z,100879.16
2017-09-07T10:59:14.623Z,100872.19
2017-09-07T11:01:48.773Z,100878.49
2017-09-07T11:04:23.608Z,100871.71
2017-09-07T11:06:58.197Z,100868.80
2017-09-07T11:09:32.840Z,100870.67
2017-09-07T11:12:07.479Z,100869.38
2017-09-07T11:14:42.218Z,100869.46
2017-09-07T11:17:17.024Z,100856.69
2017-09-07T11:19:51.854Z,100864.76
2017-09-07T11:22:26.510Z,100872.00
2017-09-07T11:25:01.365Z,100861.64
2017-09-07T11:27:37.185Z,100865.41
2017-09-07T11:30:11.817Z,100868.80
2017-09-07T11:32:46.554Z,100859.27
2017-09-07T11:35:21.477Z,100863.52
2017-09-07T11:37:56.113Z,100871.30
2017-09-07T11:40:30.967Z,100865.32
2017-09-07T11:43:05.847Z,100858.55
2017-09-07T11:45:40.620Z,100865.95
2017-09-07T11:48:15.154Z,100865.72
2017-09-07T11:50:49.829Z,100866.12
2017-09-07T11:53:24.398Z,100865.63
2017-09-07T11:55:58.910Z,100858.72
2017-09-07T11:58:33.618Z,100865.82
2017-09-07T12:01:08.132Z,100856.75
2017-09-07T12:03:42.848Z,100854.80
2017-09-07T12:06:18.502Z,100857.14
2017-09-07T12:08:53.176Z,100860.53
2017-09-07T12:11:27.732Z,100859.43
2017-09-07T12:14:02.437Z,100865.29
2017-09-07T12:16:37.053Z,100865.69
2017-09-07T12:19:11.816Z,100862.95
2017-09-07T12:21:46.420Z,100866.02
2017-09-07T12:24:21.332Z,100869.79
2017-09-07T12:26:56.968Z,100868.36
2017-09-07T12:29:31.610Z,100869.62
2017-09-07T12:32:06.348Z,100865.02
2017-09-07T12:34:41.165Z,100864.27
2017-09-07T12:37:16.129Z,100862.81
2017-09-07T12:39:50.669Z,100857.97
2017-09-07T12:42:25.445Z,100854.71
2017-09-07T12:45:00.220Z,100850.46
2017-09-07T12:47:34.876Z,100845.39
2017-09-07T12:50:09.637Z,100844.85
2017-09-07T12:52:44.324Z,100849.19
2017-09-07T12:55:18.967Z,100838.88
2017-09-07T12:57:53.712Z,100836.39
2017-09-07T13:00:28.418Z,100831.22
2017-09-07T13:03:02.960Z,100829.00
2017-09-07T13:05:37.589Z,100831.69
2017-09-07T13:08:12.324Z,100831.52
2017-09-07T13:10:46.848Z,100828.81
2017-09-07T13:13:21.689Z,100825.48
2017-09-07T13:15:57.305Z,100827.31
2017-09-07T13:18:32.991Z,100838.70
2017-09-07T13:21:08.621Z,100842.23
2017-09-07T13:23:43.132Z,100846.53
2017-09-07T13:26:18.784Z,100842.75
2017-09-07T13:28:53.540Z,100846.23
2017-09-07T13:31:28.276Z,100843.27
2017-09-07T13:34:03.247Z,100844.26
2017-09-07T13:36:38.200Z,100844.34
2017-09-07T13:39:12.952Z,100841.44
2017-09-07T13:41:47.785Z,100837.27
2017-09-07T13:44:22.717Z,100835.80
2017-09-07T13:46:57.500Z,100832.23
2017-09-07T13:49:32.808Z,100820.58
2017-09-07T13:52:07.525Z,100833.02
2017-09-07T13:54:42.286Z,100820.03
2017-09-07T13:57:17.112Z,100822.70
2017-09-07T13:59:51.712Z,100811.92
2017-09-07T14:02:26.437Z,100812.78
2017-09-07T14:05:01.393Z,100814.52
2017-09-07T14:07:36.120Z,100805.97
2017-09-07T14:10:10.730Z,100808.46
2017-09-07T14:12:45.378Z,100810.16
2017-09-07T14:15:20.207Z,100811.33
2017-09-07T14:17:54.909Z,100808.10
2017-09-07T14:20:29.636Z,100799.98
2017-09-07T14:23:04.173Z,100812.69
2017-09-07T14:25:38.897Z,100808.23
2017-09-07T14:28:13.726Z,100807.54
2017-09-07T14:30:48.452Z,100800.98
2017-09-07T14:33:23.136Z,100802.88
2017-09-07T14:35:57.817Z,100798.63
2017-09-07T14:38:32.538Z,100798.79
2017-09-07T14:41:08.308Z,100810.81
2017-09-07T14:43:43.277Z,100808.03
2017-09-07T14:46:18.353Z,100807.19
2017-09-07T14:48:53.340Z,100805.11
2017-09-07T14:51:28.380Z,100805.80
2017-09-07T14:54:02.787Z,100808.19
2017-09-07T14:56:37.476Z,100806.59
2017-09-07T14:59:12.773Z,100803.23
2017-09-07T15:01:48.130Z,100802.38
2017-09-07T15:04:23.476Z,100808.55
2017-09-07T15:06:58.651Z,100811.38
2017-09-07T15:09:33.612Z,100807.14
2017-09-07T15:12:08.289Z,100820.52
2017-09-07T15:14:43.885Z,100818.34
2017-09-07T15:17:18.792Z,100809.90
2017-09-07T15:19:54.702Z,100821.02
2017-09-07T15:22:30.461Z,100813.22
2017-09-07T15:25:05.025Z,100813.56
2017-09-07T15:27:39.845Z,100817.75
2017-09-07T15:30:17.058Z,100812.98
2017-09-07T15:32:51.704Z,100814.95
2017-09-07T15:35:26.409Z,100816.12
2017-09-07T15:38:03.492Z,100814.49
2017-09-07T15:40:40.170Z,100805.27
2017-09-07T15:43:14.821Z,100809.63
2017-09-07T15:45:49.668Z,100794.88
2017-09-07T15:48:24.184Z,100800.09
2017-09-07T15:50:58.889Z,100789.34
2017-09-07T15:53:33.716Z,100787.53
2017-09-07T15:56:09.457Z,100788.91
2017-09-07T15:58:44.194Z,100787.97
2017-09-07T16:01:18.919Z,100787.13
2017-09-07T16:03:53.676Z,100776.96
2017-09-07T16:06:28.377Z,100773.23
2017-09-07T16:09:02.930Z,100767.41
2017-09-07T16:11:37.854Z,100768.00
2017-09-07T16:14:12.569Z,100764.70
2017-09-07T16:16:47.241Z,100760.84
2017-09-07T16:19:21.985Z,100768.36
2017-09-07T16:21:58.102Z,100768.94
2017-09-07T16:24:32.604Z,100768.86
2017-09-07T16:27:07.521Z,100765.30
2017-09-07T16:29:41.969Z,100768.52
2017-09-07T16:32:16.813Z,100770.75
2017-09-07T16:34:51.429Z,100769.11
2017-09-07T16:37:26.176Z,100765.48
2017-09-07T16:40:00.857Z,100768.30
2017-09-07T16:42:35.505Z,100764.44
2017-09-07T16:45:10.270Z,100770.75
2017-09-07T16:47:44.916Z,100772.02
2017-09-07T16:50:19.718Z,100770.62
2017-09-07T16:52:54.292Z,100773.27
2017-09-07T16:55:29.025Z,100775.47
2017-09-07T16:58:03.676Z,100779.56
2017-09-07T17:00:38.641Z,100783.19
2017-09-07T17:03:13.237Z,100774.84
2017-09-07T17:05:47.964Z,100771.46
2017-09-07T17:08:22.972Z,100773.44
2017-09-07T17:10:57.525Z,100770.43
2017-09-07T17:13:32.808Z,100774.82
2017-09-07T17:16:08.048Z,100772.02
2017-09-07T17:18:42.799Z,100761.70
2017-09-07T17:21:17.560Z,100756.68
2017-09-07T17:23:53.413Z,100764.97
2017-09-07T17:26:28.093Z,100762.51
2017-09-07T17:29:02.824Z,100764.88
2017-09-07T17:31:37.570Z,100759.03
2017-09-07T17:34:12.180Z,100758.13
2017-09-07T17:36:47.052Z,100767.42
2017-09-07T17:39:21.781Z,100769.64
2017-09-07T17:41:56.412Z,100766.48
2017-09-07T17:44:31.169Z,100767.58
2017-09-07T17:47:05.864Z,100765.70
2017-09-07T17:49:41.245Z,100773.80
2017-09-07T17:52:15.749Z,100767.31
2017-09-07T17:54:50.600Z,100771.31
2017-09-07T17:57:25.184Z,100779.55
2017-09-07T17:59:59.910Z,100774.34
2017-09-07T18:02:34.640Z,100780.73
2017-09-07T18:05:09.264Z,100766.88
2017-09-07T18:07:44.020Z,100764.56
2017-09-07T18:10:18.845Z,100769.91
2017-09-07T18:12:53.517Z,100771.67
2017-09-07T18:15:28.266Z,100770.66
2017-09-07T18:18:03.144Z,100772.37
2017-09-07T18:20:39.012Z,100768.66
2017-09-07T18:23:13.792Z,100766.11
2017-09-07T18:25:48.504Z,100763.70
2017-09-07T18:28:23.026Z,100765.91
2017-09-07T18:30:57.976Z,100766.14
2017-09-07T18:33:32.809Z,100767.20
2017-09-07T18:36:07.629Z,100771.91
2017-09-07T18:38:42.365Z,100771.30
2017-09-07T18:41:18.592Z,100770.25
2017-09-07T18:43:53.586Z,100775.00
2017-09-07T18:46:28.323Z,100779.80
2017-09-07T18:49:03.029Z,100777.23
2017-09-07T18:51:37.894Z,100775.06
2017-09-07T18:54:12.513Z,100770.45
2017-09-07T18:56:47.379Z,100770.13
2017-09-07T18:59:22.064Z,100771.06
2017-09-07T19:01:57.038Z,100765.16
2017-09-07T19:04:31.649Z,100769.63
2017-09-07T19:07:06.444Z,100770.95
2017-09-07T19:09:41.156Z,100766.59
2017-09-07T19:12:16.063Z,100767.94
2017-09-07T19:14:51.041Z,100773.13
2017-09-07T19:17:26.091Z,100764.95
2017-09-07T19:20:00.937Z,100767.28
2017-09-07T19:22:35.638Z,100762.97
2017-09-07T19:25:10.567Z,100764.36
2017-09-07T19:27:45.205Z,100760.12
2017-09-07T19:30:20.242Z,100762.67
2017-09-07T19:32:55.209Z,100756.32
2017-09-07T19:35:30.749Z,100754.17
2017-09-07T19:38:05.612Z,100749.55
2017-09-07T19:40:40.305Z,100744.55
2017-09-07T19:43:15.269Z,100744.64
2017-09-07T19:45:50.165Z,100741.81
2017-09-07T19:48:24.852Z,100745.90
2017-09-07T19:50:59.708Z,100746.72
2017-09-07T19:53:34.415Z,100740.60
2017-09-07T19:56:09.501Z,100744.43
2017-09-07T19:58:44.117Z,100747.59
2017-09-07T20:01:19.713Z,100745.22
2017-09-07T20:03:54.581Z,100743.05
2017-09-07T20:06:29.317Z,100739.98
2017-09-07T20:09:03.624Z,100737.97
2017-09-07T20:11:38.836Z,100737.70
2017-09-07T20:14:13.573Z,100732.85
2017-09-07T20:16:48.448Z,100727.85
2017-09-07T20:19:23.276Z,100723.91
2017-09-07T20:21:57.981Z,100721.33
2017-09-07T20:24:32.721Z,100723.23
2017-09-07T20:27:07.405Z,100719.09
2017-09-07T20:29:42.490Z,100723.69
2017-09-07T20:32:17.548Z,100722.25
2017-09-07T20:34:52.480Z,100719.41
2017-09-07T20:37:27.617Z,100720.81
2017-09-07T20:40:02.002Z,100716.52
2017-09-07T20:42:37.060Z,100707.22
2017-09-07T20:45:11.912Z,100702.35
2017-09-07T20:47:46.488Z,100700.32
2017-09-07T20:50:21.272Z,100691.92
2017-09-07T20:52:56.072Z,100694.37
2017-09-07T20:55:30.809Z,100690.40
2017-09-07T20:58:05.633Z,100687.82
2017-09-07T21:00:40.252Z,100673.42
2017-09-07T21:03:15.014Z,100676.70
2017-09-07T21:05:49.649Z,100665.84
2017-09-07T21:08:24.463Z,100664.30
2017-09-07T21:10:59.300Z,100663.23
2017-09-07T21:13:33.928Z,100667.09
2017-09-07T21:16:08.664Z,100654.54
2017-09-07T21:18:43.584Z,100649.88
2017-09-07T21:21:19.476Z,100648.83
2017-09-07T21:23:54.837Z,100638.08
2017-09-07T21:26:29.965Z,100640.28
2017-09-07T21:29:04.849Z,100642.37
2017-09-07T21:31:39.603Z,100643.45
2017-09-07T21:34:14.423Z,100639.14
2017-09-07T21:36:49.127Z,100624.25
2017-09-07T21:39:23.864Z,100625.88
2017-09-07T21:41:58.684Z,100623.28
2017-09-07T21:44:33.515Z,100616.43
2017-09-07T21:47:08.225Z,100619.42
2017-09-07T21:49:43.583Z,100619.02
2017-09-07T21:52:18.205Z,100611.07
2017-09-07T21:54:52.968Z,100615.20
2017-09-07T21:57:27.408Z,100610.59
2017-09-07T22:00:02.174Z,100604.42
2017-09-07T22:02:36.720Z,100594.65
2017-09-07T22:05:11.520Z,100595.95
2017-09-07T22:07:46.290Z,100587.53
2017-09-07T22:10:20.984Z,100586.55
2017-09-07T22:12:56.814Z,100591.98
2017-09-07T22:15:31.465Z,100592.42
2017-09-07T22:18:06.758Z,100588.16
2017-09-07T22:20:42.107Z,100581.72
2017-09-07T22:23:16.969Z,100578.30
2017-09-07T22:25:51.969Z,100579.20
2017-09-07T22:28:26.664Z,100580.63
2017-09-07T22:31:01.484Z,100579.82
2017-09-07T22:33:36.211Z,100577.73
2017-09-07T22:36:12.753Z,100582.75
2017-09-07T22:38:47.308Z,100575.33
2017-09-07T22:41:22.160Z,100566.27
2017-09-07T22:43:57.064Z,100567.90
2017-09-07T22:46:32.000Z,100569.25
2017-09-07T22:49:06.717Z,100563.55
2017-09-07T22:51:41.579Z,100557.17
2017-09-07T22:54:16.240Z,100543.77
2017-09-07T22:56:51.134Z,100544.84
2017-09-07T22:59:25.885Z,100546.39
2017-09-07T23:02:00.709Z,100548.45
2017-09-07T23:04:35.396Z,100542.75
2017-09-07T23:07:10.105Z,100532.03
2017-09-07T23:09:44.801Z,100519.39
2017-09-07T23:12:19.476Z,100520.03
2017-09-07T23:14:54.463Z,100525.59
2017-09-07T23:17:30.156Z,100525.36
2017-09-07T23:20:05.742Z,100533.04
2017-09-07T23:22:40.422Z,100530.05
2017-09-07T23:25:15.167Z,100525.36
2017-09-07T23:27:49.837Z,100515.16
2017-09-07T23:30:24.676Z,100514.06
2017-09-07T23:32:59.581Z,100503.89
2017-09-07T23:35:34.208Z,100495.14
2017-09-07T23:38:08.913Z,100489.49
2017-09-07T23:40:43.536Z,100482.82
2017-09-07T23:43:18.265Z,100485.82
2017-09-07T23:45:53.096Z,100480.11
2017-09-07T23:48:27.965Z,100486.00
2017-09-07T23:51:02.852Z,100483.83
2017-09-07T23:53:38.204Z,100483.17
2017-09-07T23:56:13.961Z,100484.19
2017-09-07T23:58:49.341Z,100479.05
